This is the latest recevied weather packets stored in our database for station/object WX6HNX-5. If no packets are shown the sender has not sent any weather packets the latest 10 day(s).
| Time | Temp. | Humidity | Pressure | Rain* | Wind** | Luminosity | Snow |
|---|---|---|---|---|---|---|---|
| 1777704903 | 18.33° C | 52% | 1010.2 hPa | 0 mm | - | - | - |
| 1777704604 | 18.33° C | 52% | 1010.2 hPa | 0 mm | - | - | - |
| 1777704035 | 18.33° C | 51% | 1010.2 hPa | 0 mm | - | - | - |
| 1777703735 | 18.89° C | 50% | 1010.2 hPa | 0 mm | - | - | - |
| 1777703434 | 18.89° C | 49% | 1010.2 hPa | 0 mm | - | - | - |
| 1777703135 | 18.89° C | 48% | 1010.2 hPa | 0 mm | - | - | - |
| 1777702538 | 19.44° C | 46% | 1010.2 hPa | 0 mm | - | - | - |
| 1777702235 | 20° C | 45% | 1010.2 hPa | 0 mm | - | - | - |
| 1777701456 | 20° C | 43% | 1010.2 hPa | 0 mm | - | - | - |
| 1777701140 | 20° C | 44% | 1010.2 hPa | 0 mm | - | - | - |
| 1777700841 | 20° C | 44% | 1010.2 hPa | 0 mm | - | - | - |
| 1777700540 | 20° C | 44% | 1010.2 hPa | 0 mm | - | - | - |
| 1777700241 | 20° C | 44% | 1010.3 hPa | 0 mm | - | - | - |
| 1777699941 | 19.44° C | 46% | 1010.3 hPa | 0 mm | - | - | - |
| 1777699640 | 19.44° C | 49% | 1010.3 hPa | 0 mm | - | - | - |
| 1777699340 | 19.44° C | 51% | 1010.3 hPa | 0 mm | - | - | - |
| 1777698442 | 21.11° C | 47% | 1010.3 hPa | 0 mm | - | - | - |
| 1777698140 | 21.11° C | 46% | 1010.2 hPa | 0 mm | - | - | - |
| 1777697840 | 21.67° C | 47% | 1010.2 hPa | 0 mm | - | - | - |
| 1777697540 | 22.22° C | 46% | 1010.1 hPa | 0 mm | - | - | - |
| 1777697240 | 22.78° C | 45% | 1010 hPa | 0 mm | - | - | - |
| 1777696940 | 22.78° C | 45% | 1010 hPa | 0 mm | - | - | - |
| 1777696640 | 23.33° C | 44% | 1009.9 hPa | 0 mm | - | - | - |
| 1777696340 | 23.33° C | 46% | 1009.8 hPa | 0 mm | - | - | - |
| 1777696040 | 23.89° C | 47% | 1009.8 hPa | 0 mm | - | - | - |
* Rain latest hour (hover to see other rain measurements)
** Current wind speed in m/s (hover to see current wind gust speed)